createdAt,value
2023-10-26T00:02:29.022Z,72.52
2023-10-26T00:05:03.552Z,72.11
2023-10-26T00:07:36.733Z,72.28
2023-10-26T00:10:10.537Z,71.98
2023-10-26T00:12:43.801Z,72.06
2023-10-26T00:15:16.869Z,72.04
2023-10-26T00:17:50.247Z,72.12
2023-10-26T00:20:25.169Z,72.36
2023-10-26T00:22:58.259Z,72.71
2023-10-26T00:25:31.590Z,72.25
2023-10-26T00:28:04.914Z,72.22
2023-10-26T00:30:38.419Z,72.35
2023-10-26T00:33:12.084Z,72.31
2023-10-26T00:35:46.689Z,72.42
2023-10-26T00:38:20.064Z,72.37
2023-10-26T00:40:53.119Z,72.20
2023-10-26T00:43:26.955Z,72.11
2023-10-26T00:46:00.661Z,71.96
2023-10-26T00:48:34.183Z,72.39
2023-10-26T00:51:08.946Z,72.20
2023-10-26T00:53:45.370Z,72.53
2023-10-26T00:56:20.474Z,72.62
2023-10-26T00:58:54.317Z,72.73
2023-10-26T01:01:29.127Z,72.41
2023-10-26T01:04:04.456Z,71.96
2023-10-26T01:06:38.888Z,72.39
2023-10-26T01:09:14.636Z,72.57
2023-10-26T01:11:48.301Z,72.52
2023-10-26T01:14:21.806Z,72.39
2023-10-26T01:16:55.234Z,72.60
2023-10-26T01:19:41.668Z,72.14
2023-10-26T01:22:16.547Z,72.29
2023-10-26T01:24:49.957Z,72.38
2023-10-26T01:27:23.479Z,72.38
2023-10-26T01:29:56.553Z,72.72
2023-10-26T01:32:29.698Z,72.46
2023-10-26T01:35:03.082Z,72.24
2023-10-26T01:37:40.480Z,72.51
2023-10-26T01:40:14.111Z,72.25
2023-10-26T01:42:47.239Z,72.39
2023-10-26T01:45:20.508Z,72.54
2023-10-26T01:47:55.728Z,72.49
2023-10-26T01:50:29.255Z,72.53
2023-10-26T01:53:05.065Z,72.63
2023-10-26T01:55:38.103Z,72.29
2023-10-26T01:58:11.707Z,72.28
2023-10-26T02:00:44.919Z,72.16
2023-10-26T02:03:19.798Z,72.34
2023-10-26T02:05:53.125Z,72.15
2023-10-26T02:08:27.704Z,71.97
2023-10-26T02:11:00.977Z,72.28
2023-10-26T02:13:36.557Z,72.83
2023-10-26T02:16:10.637Z,72.56
2023-10-26T02:18:45.911Z,72.73
2023-10-26T02:21:19.536Z,72.50
2023-10-26T02:23:54.255Z,72.10
2023-10-26T02:26:27.606Z,72.56
2023-10-26T02:29:03.629Z,72.42
2023-10-26T02:31:36.960Z,72.46
2023-10-26T02:34:10.289Z,72.43
2023-10-26T02:36:44.533Z,72.38
2023-10-26T02:39:19.194Z,72.34
2023-10-26T02:41:52.427Z,72.75
2023-10-26T02:44:25.538Z,72.35
2023-10-26T02:46:58.800Z,72.44
2023-10-26T02:49:33.240Z,72.26
2023-10-26T02:52:07.467Z,72.29
2023-10-26T02:54:44.118Z,72.44
2023-10-26T02:57:17.777Z,72.34
2023-10-26T02:59:51.346Z,72.11
2023-10-26T03:02:24.900Z,72.39
2023-10-26T03:04:58.217Z,72.38
2023-10-26T03:07:31.983Z,72.73
2023-10-26T03:10:07.974Z,72.17
2023-10-26T03:12:42.222Z,72.50
2023-10-26T03:15:15.564Z,72.32
2023-10-26T03:17:49.580Z,72.22
2023-10-26T03:20:22.490Z,72.82
2023-10-26T03:22:55.924Z,72.34
2023-10-26T03:25:31.012Z,72.17
2023-10-26T03:28:04.154Z,72.44
2023-10-26T03:30:38.385Z,72.52
2023-10-26T03:33:11.739Z,72.28
2023-10-26T03:35:44.908Z,72.29
2023-10-26T03:38:17.851Z,72.26
2023-10-26T03:40:53.506Z,71.96
2023-10-26T03:43:26.846Z,72.39
2023-10-26T03:45:59.915Z,72.08
2023-10-26T03:48:33.478Z,72.50
2023-10-26T03:51:07.082Z,72.34
2023-10-26T03:53:40.692Z,72.06
2023-10-26T03:56:15.262Z,72.15
2023-10-26T03:58:49.206Z,72.15
2023-10-26T04:01:23.156Z,71.87
2023-10-26T04:03:56.504Z,72.32
2023-10-26T04:06:31.129Z,72.58
2023-10-26T04:09:04.573Z,72.43
2023-10-26T04:11:39.518Z,72.35
2023-10-26T04:14:13.353Z,72.47
2023-10-26T04:16:49.012Z,72.24
2023-10-26T04:19:22.329Z,72.23
2023-10-26T04:21:58.482Z,72.36
2023-10-26T04:24:31.668Z,72.28
2023-10-26T04:27:06.998Z,72.33
2023-10-26T04:29:40.244Z,72.20
2023-10-26T04:32:13.634Z,72.29
2023-10-26T04:34:47.473Z,72.32
2023-10-26T04:37:20.925Z,72.28
2023-10-26T04:39:53.952Z,72.44
2023-10-26T04:42:28.454Z,72.10
2023-10-26T04:45:01.784Z,72.20
2023-10-26T04:47:35.150Z,72.74
2023-10-26T04:50:09.821Z,72.18
2023-10-26T04:52:43.057Z,72.41
2023-10-26T04:55:16.553Z,72.22
2023-10-26T04:57:51.131Z,72.10
2023-10-26T05:00:24.440Z,72.34
2023-10-26T05:02:57.522Z,72.11
2023-10-26T05:05:31.372Z,72.10
2023-10-26T05:08:07.551Z,72.19
2023-10-26T05:10:41.766Z,72.30
2023-10-26T05:13:16.526Z,72.35
2023-10-26T05:15:49.990Z,72.15
2023-10-26T05:18:23.406Z,72.59
2023-10-26T05:20:56.636Z,72.43
2023-10-26T05:23:29.677Z,72.68
2023-10-26T05:26:02.826Z,72.28
2023-10-26T05:28:37.822Z,72.39
2023-10-26T05:31:10.849Z,72.77
2023-10-26T05:33:44.284Z,72.58
2023-10-26T05:36:17.379Z,72.16
2023-10-26T05:38:52.151Z,71.73
2023-10-26T05:41:25.100Z,72.20
2023-10-26T05:43:59.395Z,72.33
2023-10-26T05:46:32.675Z,72.04
2023-10-26T05:49:06.330Z,72.17
2023-10-26T05:51:39.648Z,72.26
2023-10-26T05:54:12.871Z,71.92
2023-10-26T05:56:46.255Z,72.00
2023-10-26T05:59:20.483Z,72.18
2023-10-26T06:01:53.669Z,72.17
2023-10-26T06:04:27.194Z,72.11
2023-10-26T06:07:00.259Z,71.85
2023-10-26T06:09:33.339Z,72.36
2023-10-26T06:12:06.905Z,72.02
2023-10-26T06:14:41.764Z,71.80
2023-10-26T06:17:15.360Z,71.75
2023-10-26T06:19:48.542Z,72.27
2023-10-26T06:22:21.722Z,72.32
2023-10-26T06:24:54.871Z,71.98
2023-10-26T06:27:28.359Z,71.78
2023-10-26T06:30:04.833Z,71.86
2023-10-26T06:32:37.848Z,71.83
2023-10-26T06:35:12.061Z,72.20
2023-10-26T06:37:46.695Z,72.18
2023-10-26T06:40:20.184Z,71.83
2023-10-26T06:42:53.124Z,72.17
2023-10-26T06:45:27.314Z,72.39
2023-10-26T06:48:00.265Z,72.30
2023-10-26T06:50:32.986Z,72.23
2023-10-26T06:53:05.744Z,72.15
2023-10-26T06:55:38.605Z,72.25
2023-10-26T06:58:11.695Z,72.12
2023-10-26T07:00:50.176Z,72.24
2023-10-26T07:03:26.417Z,72.37
2023-10-26T07:06:02.405Z,72.68
2023-10-26T07:08:35.722Z,72.61
2023-10-26T07:11:08.918Z,72.42
2023-10-26T07:13:41.870Z,73.05
2023-10-26T07:16:15.930Z,72.49
2023-10-26T07:18:48.747Z,72.92
2023-10-26T07:21:21.898Z,72.97
2023-10-26T07:23:55.081Z,72.81
2023-10-26T07:26:28.181Z,72.94
2023-10-26T07:29:01.821Z,72.97
2023-10-26T07:31:36.148Z,72.93
2023-10-26T07:34:09.005Z,73.07
2023-10-26T07:36:41.816Z,72.72
2023-10-26T07:39:48.372Z,72.98
2023-10-26T07:42:09.177Z,72.92
2023-10-26T07:44:42.464Z,72.93
2023-10-26T07:47:17.221Z,72.72
2023-10-26T07:49:50.156Z,72.99
2023-10-26T07:52:22.850Z,73.23
2023-10-26T07:54:55.743Z,72.96
2023-10-26T07:57:28.575Z,73.19
2023-10-26T08:00:02.170Z,73.29
2023-10-26T08:02:47.229Z,73.60
2023-10-26T08:05:20.298Z,73.79
2023-10-26T08:07:53.682Z,73.48
2023-10-26T08:10:27.329Z,73.60
2023-10-26T08:13:00.700Z,73.27
2023-10-26T08:16:09.582Z,73.76
2023-10-26T08:18:28.237Z,73.74
2023-10-26T08:21:03.412Z,73.41
2023-10-26T08:23:36.890Z,73.53
2023-10-26T08:26:11.405Z,73.29
2023-10-26T08:28:44.213Z,73.27
2023-10-26T08:31:17.081Z,73.63
2023-10-26T08:33:51.721Z,72.84
2023-10-26T08:36:26.217Z,73.38
2023-10-26T08:38:59.111Z,73.15
2023-10-26T08:41:34.768Z,73.03
2023-10-26T08:44:08.149Z,72.73
2023-10-26T08:46:41.641Z,73.57
2023-10-26T08:49:17.373Z,72.56
2023-10-26T08:51:50.290Z,73.08
2023-10-26T08:54:22.885Z,72.59
2023-10-26T08:56:55.784Z,71.81
2023-10-26T08:59:29.558Z,72.37
2023-10-26T09:02:02.602Z,71.73
2023-10-26T09:04:36.980Z,72.50
2023-10-26T09:07:09.989Z,71.92
2023-10-26T09:09:46.343Z,70.69
2023-10-26T09:12:19.229Z,71.92
2023-10-26T09:15:01.562Z,72.33
2023-10-26T09:17:36.296Z,70.82
2023-10-26T09:20:30.222Z,72.64
2023-10-26T09:23:04.727Z,71.13
2023-10-26T09:25:37.465Z,72.22
2023-10-26T09:28:12.327Z,71.12
2023-10-26T09:30:46.383Z,71.75
2023-10-26T09:33:26.608Z,71.75
2023-10-26T09:36:12.336Z,70.97
2023-10-26T09:38:45.985Z,71.78
2023-10-26T09:41:21.161Z,70.61
2023-10-26T09:43:54.008Z,71.51
2023-10-26T09:46:27.596Z,71.83
2023-10-26T09:49:00.663Z,71.98
2023-10-26T09:51:35.396Z,72.32
2023-10-26T09:54:09.911Z,72.24
2023-10-26T09:56:50.171Z,71.42
2023-10-26T09:59:24.128Z,70.62
2023-10-26T10:01:57.227Z,71.92
2023-10-26T10:04:38.542Z,73.52
2023-10-26T10:07:18.987Z,72.75
2023-10-26T10:10:08.470Z,70.81
2023-10-26T10:12:43.758Z,70.58
2023-10-26T10:15:40.070Z,71.66
2023-10-26T10:18:12.726Z,72.14
2023-10-26T10:20:48.901Z,71.42
2023-10-26T10:23:32.838Z,70.77
2023-10-26T10:26:24.005Z,71.79
2023-10-26T10:29:18.749Z,71.90
2023-10-26T10:31:51.450Z,72.36
2023-10-26T10:34:26.541Z,71.98
2023-10-26T10:37:16.217Z,71.33
2023-10-26T10:40:12.869Z,70.42
2023-10-26T10:42:48.869Z,70.93
2023-10-26T10:45:24.673Z,69.53
2023-10-26T10:47:57.668Z,71.17
2023-10-26T10:50:31.168Z,71.45
2023-10-26T10:53:03.787Z,71.86
2023-10-26T10:55:38.096Z,71.83
2023-10-26T10:58:11.395Z,69.41
2023-10-26T11:00:46.937Z,70.01
2023-10-26T11:03:20.347Z,71.23
2023-10-26T11:05:53.232Z,73.13
2023-10-26T11:08:27.405Z,70.92
2023-10-26T11:11:01.790Z,71.09
2023-10-26T11:13:34.727Z,74.29
2023-10-26T11:16:17.255Z,72.06
2023-10-26T11:18:50.078Z,72.90
2023-10-26T11:21:22.959Z,71.60
2023-10-26T11:23:55.864Z,70.56
2023-10-26T11:26:29.962Z,70.15
2023-10-26T11:29:05.136Z,72.74
2023-10-26T11:31:42.604Z,71.66
2023-10-26T11:34:15.673Z,71.51
2023-10-26T11:36:48.863Z,71.79
2023-10-26T11:39:21.719Z,72.96
2023-10-26T11:41:56.675Z,71.61
2023-10-26T11:44:31.014Z,71.65
2023-10-26T11:47:04.216Z,73.08
2023-10-26T11:49:40.849Z,71.00
2023-10-26T11:52:14.128Z,72.75
2023-10-26T11:54:56.901Z,71.46
2023-10-26T11:57:31.238Z,71.81
2023-10-26T12:00:07.114Z,71.79
2023-10-26T12:02:45.662Z,71.84
2023-10-26T12:05:20.969Z,71.95
2023-10-26T12:07:54.331Z,71.12
2023-10-26T12:10:27.903Z,72.12
2023-10-26T12:13:02.597Z,71.14
2023-10-26T12:15:37.267Z,69.20
2023-10-26T12:18:10.220Z,73.97
2023-10-26T12:20:43.159Z,72.01
2023-10-26T12:23:16.189Z,71.91
2023-10-26T12:25:49.405Z,72.03
2023-10-26T12:28:27.146Z,72.02
2023-10-26T12:31:02.555Z,72.34
2023-10-26T12:33:39.691Z,73.17
2023-10-26T12:36:13.288Z,72.17
2023-10-26T12:38:46.044Z,72.55
2023-10-26T12:41:19.143Z,72.63
2023-10-26T12:43:53.394Z,72.13
2023-10-26T12:46:26.229Z,71.39
2023-10-26T12:48:59.052Z,72.25
2023-10-26T12:51:32.065Z,72.23
2023-10-26T12:54:10.902Z,71.78
2023-10-26T12:56:44.427Z,72.16
2023-10-26T12:59:18.604Z,71.83
2023-10-26T13:01:51.656Z,72.32
2023-10-26T13:04:24.372Z,72.26
2023-10-26T13:06:58.600Z,71.44
2023-10-26T13:09:31.502Z,71.65
2023-10-26T13:12:05.218Z,71.71
2023-10-26T13:14:39.448Z,71.94
2023-10-26T13:17:12.910Z,71.86
2023-10-26T13:19:46.183Z,72.14
2023-10-26T13:22:19.704Z,72.07
2023-10-26T13:24:52.869Z,71.76
2023-10-26T13:27:26.758Z,71.66
2023-10-26T13:30:00.968Z,71.89
2023-10-26T13:32:33.870Z,72.19
2023-10-26T13:35:06.989Z,71.62
2023-10-26T13:37:40.010Z,71.98
2023-10-26T13:40:13.458Z,71.49
2023-10-26T13:42:46.753Z,71.73
2023-10-26T13:45:23.332Z,72.32
2023-10-26T13:47:57.015Z,71.83
2023-10-26T13:50:29.717Z,72.42
2023-10-26T13:53:02.712Z,72.60
2023-10-26T13:55:36.773Z,72.42
2023-10-26T13:58:09.895Z,71.81
2023-10-26T14:00:44.038Z,72.45
2023-10-26T14:03:16.916Z,71.92
2023-10-26T14:05:53.302Z,71.29
2023-10-26T14:08:33.068Z,71.49
2023-10-26T14:11:06.570Z,71.23
2023-10-26T14:13:40.696Z,71.43
2023-10-26T14:16:15.984Z,71.38
2023-10-26T14:18:49.271Z,71.53
2023-10-26T14:21:22.829Z,71.07
2023-10-26T14:23:55.563Z,71.42
2023-10-26T14:26:28.452Z,71.31
2023-10-26T14:29:01.758Z,71.23
2023-10-26T14:31:35.877Z,71.21
2023-10-26T14:34:08.782Z,71.21
2023-10-26T14:36:41.813Z,71.10
2023-10-26T14:39:14.664Z,71.22
2023-10-26T14:41:47.615Z,71.05
2023-10-26T14:44:20.276Z,71.09
2023-10-26T14:46:54.350Z,71.39
2023-10-26T14:49:27.516Z,70.86
2023-10-26T14:52:01.232Z,71.05
2023-10-26T14:54:34.182Z,71.10
2023-10-26T14:57:07.270Z,70.91
2023-10-26T14:59:40.997Z,71.01
2023-10-26T15:02:16.349Z,71.38
2023-10-26T15:04:50.921Z,70.81
2023-10-26T15:07:23.977Z,70.96
2023-10-26T15:10:20.003Z,70.14
2023-10-26T15:12:49.809Z,70.85
2023-10-26T15:15:23.041Z,70.81
2023-10-26T15:17:57.854Z,70.89
2023-10-26T15:20:31.901Z,70.91
2023-10-26T15:23:05.053Z,70.58
2023-10-26T15:25:38.342Z,70.77
2023-10-26T15:28:11.320Z,70.47
2023-10-26T15:30:44.212Z,70.71
2023-10-26T15:33:19.306Z,70.75
2023-10-26T15:35:53.029Z,70.64
2023-10-26T15:38:28.934Z,70.69
2023-10-26T15:41:04.414Z,70.51
2023-10-26T15:43:37.545Z,70.58
2023-10-26T15:46:11.029Z,70.51
2023-10-26T15:49:30.562Z,70.80
2023-10-26T15:51:38.570Z,71.09
2023-10-26T15:54:11.867Z,71.17
2023-10-26T15:56:45.190Z,71.41
2023-10-26T15:59:18.142Z,71.40
2023-10-26T16:01:50.906Z,71.13
2023-10-26T16:04:25.609Z,70.99
2023-10-26T16:07:00.107Z,71.31
2023-10-26T16:09:35.690Z,71.04
2023-10-26T16:12:10.875Z,70.76
2023-10-26T16:14:44.415Z,71.05
2023-10-26T16:17:17.675Z,70.94
2023-10-26T16:19:51.894Z,70.94
2023-10-26T16:22:25.012Z,71.31
2023-10-26T16:24:58.135Z,71.30
2023-10-26T16:27:31.274Z,71.38
2023-10-26T16:30:04.889Z,71.00
2023-10-26T16:32:38.835Z,71.05
2023-10-26T16:35:13.637Z,71.17
2023-10-26T16:37:46.890Z,71.18
2023-10-26T16:40:20.184Z,71.09
2023-10-26T16:42:53.273Z,71.15
2023-10-26T16:45:26.595Z,70.99
2023-10-26T16:47:59.890Z,71.00
2023-10-26T16:50:34.268Z,71.08
2023-10-26T16:53:19.394Z,71.12
2023-10-26T16:56:01.393Z,71.23
2023-10-26T16:58:35.112Z,71.40
2023-10-26T17:01:11.296Z,71.15
2023-10-26T17:03:46.778Z,71.08
2023-10-26T17:06:21.762Z,71.12
2023-10-26T17:08:54.984Z,70.83
2023-10-26T17:11:28.151Z,71.20
2023-10-26T17:14:01.686Z,70.87
2023-10-26T17:16:34.815Z,70.70
2023-10-26T17:19:09.262Z,70.84
2023-10-26T17:21:43.800Z,71.13
2023-10-26T17:24:17.017Z,70.98
2023-10-26T17:26:50.989Z,71.23
2023-10-26T17:29:24.110Z,71.34
2023-10-26T17:31:57.405Z,71.37
2023-10-26T17:34:34.195Z,71.28
2023-10-26T17:37:09.375Z,71.30
2023-10-26T17:39:43.792Z,71.08
2023-10-26T17:42:17.244Z,71.19
2023-10-26T17:44:51.371Z,71.11
2023-10-26T17:47:24.872Z,71.05
2023-10-26T17:49:58.308Z,71.04
2023-10-26T17:52:35.934Z,71.13
2023-10-26T17:55:10.399Z,70.87
2023-10-26T17:57:45.718Z,70.98
2023-10-26T18:00:19.901Z,70.95
2023-10-26T18:02:53.650Z,70.88
2023-10-26T18:05:28.316Z,70.84
2023-10-26T18:08:02.904Z,71.02
2023-10-26T18:10:36.328Z,70.97
2023-10-26T18:13:09.306Z,71.03
2023-10-26T18:15:42.105Z,71.13
2023-10-26T18:18:16.056Z,71.02
2023-10-26T18:20:59.968Z,71.03
2023-10-26T18:23:35.789Z,71.17
2023-10-26T18:26:10.345Z,70.82
2023-10-26T18:28:45.587Z,70.75
2023-10-26T18:31:21.867Z,70.65
2023-10-26T18:33:56.445Z,70.85
2023-10-26T18:36:29.635Z,70.73
2023-10-26T18:39:04.363Z,70.87
2023-10-26T18:41:37.569Z,70.80
2023-10-26T18:44:10.472Z,70.91
2023-10-26T18:46:43.412Z,70.93
2023-10-26T18:49:17.392Z,70.69
2023-10-26T18:51:50.914Z,70.33
2023-10-26T18:54:25.193Z,70.18
2023-10-26T18:56:58.579Z,70.18
2023-10-26T18:59:31.732Z,70.35
2023-10-26T19:02:04.961Z,70.64
2023-10-26T19:04:38.008Z,70.17
2023-10-26T19:07:12.298Z,70.31
2023-10-26T19:09:47.083Z,70.51
2023-10-26T19:12:20.766Z,70.48
2023-10-26T19:14:54.419Z,69.98
2023-10-26T19:17:27.631Z,70.43
2023-10-26T19:20:01.039Z,70.46
2023-10-26T19:22:34.857Z,70.41
2023-10-26T19:25:10.252Z,70.50
2023-10-26T19:27:45.284Z,70.43
2023-10-26T19:30:19.789Z,70.32
2023-10-26T19:32:53.273Z,70.29
2023-10-26T19:35:27.448Z,70.32
2023-10-26T19:38:00.509Z,70.12
2023-10-26T19:40:34.972Z,70.18
2023-10-26T19:43:08.413Z,69.91
2023-10-26T19:45:43.574Z,70.04
2023-10-26T19:48:17.767Z,70.22
2023-10-26T19:50:50.877Z,69.88
2023-10-26T19:53:23.922Z,70.12
2023-10-26T19:55:58.926Z,70.15
2023-10-26T19:58:32.019Z,70.60
2023-10-26T20:01:06.127Z,69.96
2023-10-26T20:03:39.016Z,69.97
2023-10-26T20:06:11.916Z,69.36
2023-10-26T20:08:45.055Z,69.66
2023-10-26T20:11:19.426Z,70.12
2023-10-26T20:13:53.510Z,70.14
2023-10-26T20:16:26.809Z,70.09
2023-10-26T20:19:01.015Z,70.30
2023-10-26T20:21:35.550Z,70.26
2023-10-26T20:24:10.498Z,70.44
2023-10-26T20:26:45.099Z,70.59
2023-10-26T20:29:18.699Z,70.52
2023-10-26T20:31:51.475Z,70.50
2023-10-26T20:34:25.382Z,70.32
2023-10-26T20:36:58.703Z,70.89
2023-10-26T20:39:31.873Z,70.34
2023-10-26T20:42:07.310Z,71.20
2023-10-26T20:44:40.683Z,70.74
2023-10-26T20:47:13.987Z,70.93
2023-10-26T20:49:49.371Z,71.63
2023-10-26T20:52:23.016Z,71.40
2023-10-26T20:54:56.861Z,71.55
2023-10-26T20:57:31.610Z,71.63
2023-10-26T21:00:05.611Z,71.40
2023-10-26T21:02:40.524Z,71.64
2023-10-26T21:05:13.416Z,71.60
2023-10-26T21:07:46.349Z,71.62
2023-10-26T21:10:19.626Z,71.87
2023-10-26T21:12:54.541Z,71.31
2023-10-26T21:15:27.706Z,71.14
2023-10-26T21:18:00.956Z,71.60
2023-10-26T21:20:35.881Z,71.16
2023-10-26T21:23:09.564Z,71.35
2023-10-26T21:25:44.142Z,71.37
2023-10-26T21:28:18.778Z,71.46
2023-10-26T21:30:54.206Z,71.68
2023-10-26T21:33:27.724Z,71.73
2023-10-26T21:36:00.834Z,71.59
2023-10-26T21:38:33.928Z,71.92
2023-10-26T21:41:07.546Z,72.01
2023-10-26T21:43:42.552Z,72.27
2023-10-26T21:46:15.973Z,72.11
2023-10-26T21:48:49.778Z,72.16
2023-10-26T21:51:23.540Z,71.88
2023-10-26T21:53:56.718Z,71.84
2023-10-26T21:56:29.463Z,72.22
2023-10-26T21:59:04.140Z,71.88
2023-10-26T22:01:37.811Z,72.01
2023-10-26T22:04:21.942Z,71.68
2023-10-26T22:06:56.927Z,71.85
2023-10-26T22:09:33.580Z,71.81
2023-10-26T22:12:10.039Z,71.91
2023-10-26T22:14:45.468Z,72.10
2023-10-26T22:17:18.960Z,71.96
2023-10-26T22:19:53.084Z,72.16
2023-10-26T22:22:26.607Z,71.99
2023-10-26T22:25:00.348Z,71.99
2023-10-26T22:27:34.349Z,72.06
2023-10-26T22:30:11.814Z,72.37
2023-10-26T22:32:45.315Z,72.09
2023-10-26T22:35:18.929Z,72.28
2023-10-26T22:37:52.796Z,72.05
2023-10-26T22:40:26.658Z,72.07
2023-10-26T22:43:00.267Z,72.01
2023-10-26T22:45:34.825Z,72.51
2023-10-26T22:48:08.820Z,72.15
2023-10-26T22:50:42.397Z,72.48
2023-10-26T22:53:16.946Z,72.13
2023-10-26T22:55:51.225Z,72.50
2023-10-26T22:58:26.078Z,72.32
2023-10-26T23:01:05.997Z,71.87
2023-10-26T23:03:39.168Z,72.15
2023-10-26T23:06:12.792Z,72.47
2023-10-26T23:08:46.284Z,72.55
2023-10-26T23:11:22.961Z,72.42
2023-10-26T23:13:56.326Z,72.90
2023-10-26T23:16:31.429Z,72.33
2023-10-26T23:19:06.458Z,72.12
2023-10-26T23:21:39.708Z,72.28
2023-10-26T23:24:13.393Z,72.38
2023-10-26T23:26:48.828Z,72.81
2023-10-26T23:29:29.218Z,72.45
2023-10-26T23:32:05.364Z,72.19
2023-10-26T23:34:39.151Z,72.62
2023-10-26T23:37:12.828Z,72.50
2023-10-26T23:39:46.762Z,72.30
2023-10-26T23:42:19.842Z,72.28
2023-10-26T23:44:53.438Z,72.57
2023-10-26T23:47:29.351Z,72.57
2023-10-26T23:50:02.884Z,72.48
2023-10-26T23:52:39.111Z,72.50
2023-10-26T23:55:13.123Z,71.91
2023-10-26T23:57:46.182Z,72.40
